sensor_id;sensor_type;location;lat;lon;timestamp;P1;durP1;ratioP1;P2;durP2;ratioP2
49840;SDS011;35738;49.890;5.930;2023-05-09T00:00:29;30.50;;;17.95;;
49840;SDS011;35738;49.890;5.930;2023-05-09T00:02:57;28.63;;;18.90;;
49840;SDS011;35738;49.890;5.930;2023-05-09T00:05:24;28.95;;;18.85;;
49840;SDS011;35738;49.890;5.930;2023-05-09T00:07:50;26.23;;;18.05;;
49840;SDS011;35738;49.890;5.930;2023-05-09T00:10:17;27.73;;;18.38;;
49840;SDS011;35738;49.890;5.930;2023-05-09T00:12:43;28.30;;;18.08;;
49840;SDS011;35738;49.890;5.930;2023-05-09T00:15:10;29.65;;;18.80;;
49840;SDS011;35738;49.890;5.930;2023-05-09T00:17:38;23.60;;;16.92;;
49840;SDS011;35738;49.890;5.930;2023-05-09T00:20:08;24.13;;;16.33;;
49840;SDS011;35738;49.890;5.930;2023-05-09T00:22:38;18.65;;;13.55;;
49840;SDS011;35738;49.890;5.930;2023-05-09T00:25:08;24.30;;;16.02;;
49840;SDS011;35738;49.890;5.930;2023-05-09T00:27:35;28.52;;;17.73;;
49840;SDS011;35738;49.890;5.930;2023-05-09T00:30:02;26.75;;;17.10;;
49840;SDS011;35738;49.890;5.930;2023-05-09T00:32:30;27.17;;;18.02;;
49840;SDS011;35738;49.890;5.930;2023-05-09T00:34:58;27.83;;;18.27;;
49840;SDS011;35738;49.890;5.930;2023-05-09T00:37:24;26.13;;;16.90;;
49840;SDS011;35738;49.890;5.930;2023-05-09T00:39:51;19.52;;;14.10;;
49840;SDS011;35738;49.890;5.930;2023-05-09T00:42:17;17.90;;;13.43;;
49840;SDS011;35738;49.890;5.930;2023-05-09T00:44:44;16.15;;;12.45;;
49840;SDS011;35738;49.890;5.930;2023-05-09T00:47:10;13.95;;;10.20;;
49840;SDS011;35738;49.890;5.930;2023-05-09T00:49:37;18.00;;;13.20;;
49840;SDS011;35738;49.890;5.930;2023-05-09T00:52:04;12.90;;;9.77;;
49840;SDS011;35738;49.890;5.930;2023-05-09T00:54:30;19.73;;;14.23;;
49840;SDS011;35738;49.890;5.930;2023-05-09T00:56:57;15.10;;;11.82;;
49840;SDS011;35738;49.890;5.930;2023-05-09T00:59:24;17.67;;;12.18;;
49840;SDS011;35738;49.890;5.930;2023-05-09T01:01:50;14.75;;;11.15;;
49840;SDS011;35738;49.890;5.930;2023-05-09T01:04:17;20.05;;;12.93;;
49840;SDS011;35738;49.890;5.930;2023-05-09T01:06:46;14.45;;;11.48;;
49840;SDS011;35738;49.890;5.930;2023-05-09T01:09:23;17.63;;;13.52;;
49840;SDS011;35738;49.890;5.930;2023-05-09T01:12:17;15.13;;;11.98;;
49840;SDS011;35738;49.890;5.930;2023-05-09T01:22:23;15.07;;;11.07;;
49840;SDS011;35738;49.890;5.930;2023-05-09T01:30:38;14.25;;;11.40;;
49840;SDS011;35738;49.890;5.930;2023-05-09T01:33:08;13.75;;;10.30;;
49840;SDS011;35738;49.890;5.930;2023-05-09T01:35:38;11.13;;;8.90;;
49840;SDS011;35738;49.890;5.930;2023-05-09T01:38:11;12.25;;;9.68;;
49840;SDS011;35738;49.890;5.930;2023-05-09T01:40:42;11.55;;;9.00;;
49840;SDS011;35738;49.890;5.930;2023-05-09T01:43:12;11.27;;;8.88;;
49840;SDS011;35738;49.890;5.930;2023-05-09T01:45:42;12.20;;;9.82;;
49840;SDS011;35738;49.890;5.930;2023-05-09T01:48:10;9.80;;;7.82;;
49840;SDS011;35738;49.890;5.930;2023-05-09T01:50:38;12.13;;;10.18;;
49840;SDS011;35738;49.890;5.930;2023-05-09T01:53:06;15.60;;;12.52;;
49840;SDS011;35738;49.890;5.930;2023-05-09T01:55:35;19.17;;;13.18;;
49840;SDS011;35738;49.890;5.930;2023-05-09T01:58:03;19.63;;;13.93;;
49840;SDS011;35738;49.890;5.930;2023-05-09T02:00:32;18.63;;;14.50;;
49840;SDS011;35738;49.890;5.930;2023-05-09T02:03:00;17.08;;;13.32;;
49840;SDS011;35738;49.890;5.930;2023-05-09T02:05:29;19.67;;;14.43;;
49840;SDS011;35738;49.890;5.930;2023-05-09T02:07:58;23.25;;;15.48;;
49840;SDS011;35738;49.890;5.930;2023-05-09T02:10:28;18.65;;;14.82;;
49840;SDS011;35738;49.890;5.930;2023-05-09T02:12:56;22.58;;;15.23;;
49840;SDS011;35738;49.890;5.930;2023-05-09T02:15:23;20.75;;;14.77;;
49840;SDS011;35738;49.890;5.930;2023-05-09T02:17:51;21.17;;;14.93;;
49840;SDS011;35738;49.890;5.930;2023-05-09T02:20:17;18.55;;;12.52;;
49840;SDS011;35738;49.890;5.930;2023-05-09T02:22:44;19.45;;;14.50;;
49840;SDS011;35738;49.890;5.930;2023-05-09T02:25:11;19.05;;;14.20;;
49840;SDS011;35738;49.890;5.930;2023-05-09T02:27:43;16.23;;;12.25;;
49840;SDS011;35738;49.890;5.930;2023-05-09T02:30:13;19.42;;;14.18;;
49840;SDS011;35738;49.890;5.930;2023-05-09T02:32:44;16.67;;;12.30;;
49840;SDS011;35738;49.890;5.930;2023-05-09T02:35:14;18.90;;;13.35;;
49840;SDS011;35738;49.890;5.930;2023-05-09T02:37:43;21.20;;;14.63;;
49840;SDS011;35738;49.890;5.930;2023-05-09T02:40:10;16.65;;;13.40;;
49840;SDS011;35738;49.890;5.930;2023-05-09T02:42:38;20.98;;;15.93;;
49840;SDS011;35738;49.890;5.930;2023-05-09T02:45:05;24.48;;;16.48;;
49840;SDS011;35738;49.890;5.930;2023-05-09T02:47:32;24.27;;;17.35;;
49840;SDS011;35738;49.890;5.930;2023-05-09T02:49:59;30.10;;;18.58;;
49840;SDS011;35738;49.890;5.930;2023-05-09T02:52:26;28.90;;;18.95;;
49840;SDS011;35738;49.890;5.930;2023-05-09T02:54:52;28.83;;;19.80;;
49840;SDS011;35738;49.890;5.930;2023-05-09T02:57:19;29.13;;;18.63;;
49840;SDS011;35738;49.890;5.930;2023-05-09T02:59:46;30.02;;;19.90;;
49840;SDS011;35738;49.890;5.930;2023-05-09T03:02:12;27.52;;;18.08;;
49840;SDS011;35738;49.890;5.930;2023-05-09T03:04:42;30.88;;;19.48;;
49840;SDS011;35738;49.890;5.930;2023-05-09T03:07:08;29.45;;;17.73;;
49840;SDS011;35738;49.890;5.930;2023-05-09T03:09:35;27.98;;;17.80;;
49840;SDS011;35738;49.890;5.930;2023-05-09T03:12:03;27.45;;;17.40;;
49840;SDS011;35738;49.890;5.930;2023-05-09T03:14:30;29.05;;;17.65;;
49840;SDS011;35738;49.890;5.930;2023-05-09T03:16:57;24.08;;;16.50;;
49840;SDS011;35738;49.890;5.930;2023-05-09T03:19:23;25.08;;;16.38;;
49840;SDS011;35738;49.890;5.930;2023-05-09T03:21:50;32.53;;;17.80;;
49840;SDS011;35738;49.890;5.930;2023-05-09T03:24:17;43.50;;;17.58;;
49840;SDS011;35738;49.890;5.930;2023-05-09T03:26:43;29.75;;;17.63;;
49840;SDS011;35738;49.890;5.930;2023-05-09T03:29:09;31.58;;;17.77;;
49840;SDS011;35738;49.890;5.930;2023-05-09T03:31:36;24.90;;;17.50;;
49840;SDS011;35738;49.890;5.930;2023-05-09T03:34:03;31.85;;;18.30;;
49840;SDS011;35738;49.890;5.930;2023-05-09T03:36:29;30.10;;;17.17;;
49840;SDS011;35738;49.890;5.930;2023-05-09T03:38:57;17.00;;;13.50;;
49840;SDS011;35738;49.890;5.930;2023-05-09T03:41:23;26.15;;;16.83;;
49840;SDS011;35738;49.890;5.930;2023-05-09T03:43:50;29.67;;;15.68;;
49840;SDS011;35738;49.890;5.930;2023-05-09T03:46:18;23.17;;;15.57;;
49840;SDS011;35738;49.890;5.930;2023-05-09T03:48:44;30.08;;;18.77;;
49840;SDS011;35738;49.890;5.930;2023-05-09T03:51:11;31.05;;;17.50;;
49840;SDS011;35738;49.890;5.930;2023-05-09T03:53:37;22.02;;;15.25;;
49840;SDS011;35738;49.890;5.930;2023-05-09T03:56:04;34.72;;;19.20;;
49840;SDS011;35738;49.890;5.930;2023-05-09T03:58:32;33.85;;;18.95;;
49840;SDS011;35738;49.890;5.930;2023-05-09T04:00:59;39.90;;;19.58;;
49840;SDS011;35738;49.890;5.930;2023-05-09T04:03:25;39.45;;;21.08;;
49840;SDS011;35738;49.890;5.930;2023-05-09T04:05:53;34.53;;;19.00;;
49840;SDS011;35738;49.890;5.930;2023-05-09T04:08:19;40.90;;;19.25;;
49840;SDS011;35738;49.890;5.930;2023-05-09T04:10:46;53.53;;;19.67;;
49840;SDS011;35738;49.890;5.930;2023-05-09T04:13:12;33.17;;;18.50;;
49840;SDS011;35738;49.890;5.930;2023-05-09T04:15:39;35.03;;;18.30;;
49840;SDS011;35738;49.890;5.930;2023-05-09T04:18:06;33.25;;;18.33;;
49840;SDS011;35738;49.890;5.930;2023-05-09T04:20:32;43.65;;;19.70;;
49840;SDS011;35738;49.890;5.930;2023-05-09T04:22:59;29.67;;;18.05;;
49840;SDS011;35738;49.890;5.930;2023-05-09T04:25:26;33.45;;;19.73;;
49840;SDS011;35738;49.890;5.930;2023-05-09T04:27:52;57.80;;;18.20;;
49840;SDS011;35738;49.890;5.930;2023-05-09T04:30:19;25.08;;;16.73;;
49840;SDS011;35738;49.890;5.930;2023-05-09T04:32:46;29.85;;;17.30;;
49840;SDS011;35738;49.890;5.930;2023-05-09T04:35:14;27.50;;;16.73;;
49840;SDS011;35738;49.890;5.930;2023-05-09T04:37:43;30.55;;;17.48;;
49840;SDS011;35738;49.890;5.930;2023-05-09T04:40:10;27.23;;;15.02;;
49840;SDS011;35738;49.890;5.930;2023-05-09T04:42:37;25.70;;;16.48;;
49840;SDS011;35738;49.890;5.930;2023-05-09T04:45:04;34.50;;;17.30;;
49840;SDS011;35738;49.890;5.930;2023-05-09T04:47:31;32.10;;;18.50;;
49840;SDS011;35738;49.890;5.930;2023-05-09T04:49:58;17.52;;;13.18;;
49840;SDS011;35738;49.890;5.930;2023-05-09T04:52:24;29.85;;;17.83;;
49840;SDS011;35738;49.890;5.930;2023-05-09T04:54:51;26.45;;;16.77;;
49840;SDS011;35738;49.890;5.930;2023-05-09T04:57:17;25.08;;;16.25;;
49840;SDS011;35738;49.890;5.930;2023-05-09T04:59:44;21.52;;;14.05;;
49840;SDS011;35738;49.890;5.930;2023-05-09T05:02:11;24.38;;;15.63;;
49840;SDS011;35738;49.890;5.930;2023-05-09T05:04:38;18.45;;;13.48;;
49840;SDS011;35738;49.890;5.930;2023-05-09T05:07:04;27.15;;;18.30;;
49840;SDS011;35738;49.890;5.930;2023-05-09T05:09:31;22.60;;;15.82;;
49840;SDS011;35738;49.890;5.930;2023-05-09T05:11:57;18.55;;;14.05;;
49840;SDS011;35738;49.890;5.930;2023-05-09T05:14:28;15.93;;;12.63;;
49840;SDS011;35738;49.890;5.930;2023-05-09T05:16:55;21.13;;;15.95;;
49840;SDS011;35738;49.890;5.930;2023-05-09T05:19:21;23.05;;;16.30;;
49840;SDS011;35738;49.890;5.930;2023-05-09T05:21:48;19.25;;;15.07;;
49840;SDS011;35738;49.890;5.930;2023-05-09T05:24:14;22.33;;;15.90;;
49840;SDS011;35738;49.890;5.930;2023-05-09T05:26:41;21.25;;;15.07;;
49840;SDS011;35738;49.890;5.930;2023-05-09T05:29:08;15.40;;;13.10;;
49840;SDS011;35738;49.890;5.930;2023-05-09T05:31:35;19.65;;;15.35;;
49840;SDS011;35738;49.890;5.930;2023-05-09T05:34:01;21.70;;;15.73;;
49840;SDS011;35738;49.890;5.930;2023-05-09T05:36:28;19.90;;;14.85;;
49840;SDS011;35738;49.890;5.930;2023-05-09T05:38:55;17.38;;;13.82;;
49840;SDS011;35738;49.890;5.930;2023-05-09T05:41:21;18.30;;;13.02;;
49840;SDS011;35738;49.890;5.930;2023-05-09T05:43:48;20.55;;;14.65;;
49840;SDS011;35738;49.890;5.930;2023-05-09T05:48:48;23.00;;;16.48;;
49840;SDS011;35738;49.890;5.930;2023-05-09T05:51:14;20.23;;;15.50;;
49840;SDS011;35738;49.890;5.930;2023-05-09T05:53:41;22.10;;;14.52;;
49840;SDS011;35738;49.890;5.930;2023-05-09T05:56:08;21.48;;;16.27;;
49840;SDS011;35738;49.890;5.930;2023-05-09T05:58:34;20.60;;;16.30;;
49840;SDS011;35738;49.890;5.930;2023-05-09T06:01:02;22.30;;;15.95;;
49840;SDS011;35738;49.890;5.930;2023-05-09T06:03:29;20.63;;;15.77;;
49840;SDS011;35738;49.890;5.930;2023-05-09T06:05:56;24.08;;;17.63;;
49840;SDS011;35738;49.890;5.930;2023-05-09T06:08:23;26.08;;;17.75;;
49840;SDS011;35738;49.890;5.930;2023-05-09T06:10:49;23.85;;;17.50;;
49840;SDS011;35738;49.890;5.930;2023-05-09T06:13:16;22.90;;;16.35;;
49840;SDS011;35738;49.890;5.930;2023-05-09T06:15:43;23.40;;;16.67;;
49840;SDS011;35738;49.890;5.930;2023-05-09T06:18:09;19.48;;;14.50;;
49840;SDS011;35738;49.890;5.930;2023-05-09T06:20:36;22.60;;;15.13;;
49840;SDS011;35738;49.890;5.930;2023-05-09T06:23:03;20.98;;;14.70;;
49840;SDS011;35738;49.890;5.930;2023-05-09T06:25:30;17.77;;;14.20;;
49840;SDS011;35738;49.890;5.930;2023-05-09T06:27:57;19.27;;;14.85;;
49840;SDS011;35738;49.890;5.930;2023-05-09T06:30:24;20.48;;;15.00;;
49840;SDS011;35738;49.890;5.930;2023-05-09T06:32:53;17.25;;;13.73;;
49840;SDS011;35738;49.890;5.930;2023-05-09T06:35:20;18.30;;;13.98;;
49840;SDS011;35738;49.890;5.930;2023-05-09T06:37:47;18.48;;;13.82;;
49840;SDS011;35738;49.890;5.930;2023-05-09T06:40:15;17.27;;;14.13;;
49840;SDS011;35738;49.890;5.930;2023-05-09T06:42:42;18.95;;;13.80;;
49840;SDS011;35738;49.890;5.930;2023-05-09T06:45:09;15.73;;;12.00;;
49840;SDS011;35738;49.890;5.930;2023-05-09T06:47:36;16.33;;;12.55;;
49840;SDS011;35738;49.890;5.930;2023-05-09T06:50:03;15.35;;;12.32;;
49840;SDS011;35738;49.890;5.930;2023-05-09T06:52:30;15.68;;;12.73;;
49840;SDS011;35738;49.890;5.930;2023-05-09T06:54:56;14.02;;;12.50;;
49840;SDS011;35738;49.890;5.930;2023-05-09T06:57:23;14.63;;;12.18;;
49840;SDS011;35738;49.890;5.930;2023-05-09T06:59:51;14.43;;;11.38;;
49840;SDS011;35738;49.890;5.930;2023-05-09T07:02:18;16.25;;;12.52;;
49840;SDS011;35738;49.890;5.930;2023-05-09T07:04:44;14.95;;;12.73;;
49840;SDS011;35738;49.890;5.930;2023-05-09T07:07:11;17.10;;;12.88;;
49840;SDS011;35738;49.890;5.930;2023-05-09T07:09:37;15.93;;;13.25;;
49840;SDS011;35738;49.890;5.930;2023-05-09T07:12:05;15.55;;;12.90;;
49840;SDS011;35738;49.890;5.930;2023-05-09T07:14:32;15.35;;;12.45;;
49840;SDS011;35738;49.890;5.930;2023-05-09T07:16:59;17.10;;;13.30;;
49840;SDS011;35738;49.890;5.930;2023-05-09T07:19:46;17.00;;;12.93;;
49840;SDS011;35738;49.890;5.930;2023-05-09T07:22:13;17.23;;;12.45;;
49840;SDS011;35738;49.890;5.930;2023-05-09T07:24:41;14.93;;;11.65;;
49840;SDS011;35738;49.890;5.930;2023-05-09T07:27:09;12.85;;;10.98;;
49840;SDS011;35738;49.890;5.930;2023-05-09T07:29:36;13.02;;;11.27;;
49840;SDS011;35738;49.890;5.930;2023-05-09T07:32:03;12.43;;;10.13;;
49840;SDS011;35738;49.890;5.930;2023-05-09T07:34:29;13.40;;;10.85;;
49840;SDS011;35738;49.890;5.930;2023-05-09T07:36:56;11.75;;;9.45;;
49840;SDS011;35738;49.890;5.930;2023-05-09T07:39:24;12.77;;;10.10;;
49840;SDS011;35738;49.890;5.930;2023-05-09T07:41:50;12.10;;;10.10;;
49840;SDS011;35738;49.890;5.930;2023-05-09T07:44:17;11.45;;;9.80;;
49840;SDS011;35738;49.890;5.930;2023-05-09T07:46:43;13.32;;;10.32;;
49840;SDS011;35738;49.890;5.930;2023-05-09T07:49:10;13.77;;;11.13;;
49840;SDS011;35738;49.890;5.930;2023-05-09T07:51:36;14.50;;;12.18;;
49840;SDS011;35738;49.890;5.930;2023-05-09T07:54:03;13.43;;;11.35;;
49840;SDS011;35738;49.890;5.930;2023-05-09T07:56:30;14.25;;;11.43;;
49840;SDS011;35738;49.890;5.930;2023-05-09T07:58:58;11.18;;;9.65;;
49840;SDS011;35738;49.890;5.930;2023-05-09T08:01:25;12.98;;;10.48;;
49840;SDS011;35738;49.890;5.930;2023-05-09T08:03:51;12.93;;;11.05;;
49840;SDS011;35738;49.890;5.930;2023-05-09T08:06:18;11.23;;;9.70;;
49840;SDS011;35738;49.890;5.930;2023-05-09T08:08:46;12.48;;;10.23;;
49840;SDS011;35738;49.890;5.930;2023-05-09T08:11:12;13.60;;;9.63;;
49840;SDS011;35738;49.890;5.930;2023-05-09T08:13:39;13.00;;;9.77;;
49840;SDS011;35738;49.890;5.930;2023-05-09T08:16:05;13.20;;;10.50;;
49840;SDS011;35738;49.890;5.930;2023-05-09T08:18:32;13.32;;;10.43;;
49840;SDS011;35738;49.890;5.930;2023-05-09T08:20:59;10.73;;;9.63;;
49840;SDS011;35738;49.890;5.930;2023-05-09T08:23:26;10.55;;;9.15;;
49840;SDS011;35738;49.890;5.930;2023-05-09T08:25:53;11.23;;;10.10;;
49840;SDS011;35738;49.890;5.930;2023-05-09T08:28:20;11.80;;;10.60;;
49840;SDS011;35738;49.890;5.930;2023-05-09T08:30:49;13.18;;;11.18;;
49840;SDS011;35738;49.890;5.930;2023-05-09T08:33:16;14.05;;;10.50;;
49840;SDS011;35738;49.890;5.930;2023-05-09T08:35:44;13.45;;;10.05;;
49840;SDS011;35738;49.890;5.930;2023-05-09T08:38:11;13.35;;;10.60;;
49840;SDS011;35738;49.890;5.930;2023-05-09T08:40:39;11.10;;;9.95;;
49840;SDS011;35738;49.890;5.930;2023-05-09T08:43:06;12.65;;;10.57;;
49840;SDS011;35738;49.890;5.930;2023-05-09T08:45:34;11.65;;;10.43;;
49840;SDS011;35738;49.890;5.930;2023-05-09T08:48:05;12.40;;;9.95;;
49840;SDS011;35738;49.890;5.930;2023-05-09T08:50:34;11.40;;;10.00;;
49840;SDS011;35738;49.890;5.930;2023-05-09T08:53:01;10.32;;;9.23;;
49840;SDS011;35738;49.890;5.930;2023-05-09T08:55:28;12.13;;;10.77;;
49840;SDS011;35738;49.890;5.930;2023-05-09T08:57:55;12.95;;;10.70;;
49840;SDS011;35738;49.890;5.930;2023-05-09T09:00:25;10.40;;;8.93;;
49840;SDS011;35738;49.890;5.930;2023-05-09T09:02:53;11.48;;;9.65;;
49840;SDS011;35738;49.890;5.930;2023-05-09T09:05:22;10.90;;;8.15;;
49840;SDS011;35738;49.890;5.930;2023-05-09T09:08:06;8.90;;;7.07;;
49840;SDS011;35738;49.890;5.930;2023-05-09T09:10:33;9.00;;;7.38;;
49840;SDS011;35738;49.890;5.930;2023-05-09T09:13:01;8.68;;;7.78;;
49840;SDS011;35738;49.890;5.930;2023-05-09T09:15:33;9.65;;;8.60;;
49840;SDS011;35738;49.890;5.930;2023-05-09T09:18:07;9.73;;;8.60;;
49840;SDS011;35738;49.890;5.930;2023-05-09T09:20:40;9.32;;;8.43;;
49840;SDS011;35738;49.890;5.930;2023-05-09T09:23:14;9.00;;;7.75;;
49840;SDS011;35738;49.890;5.930;2023-05-09T09:25:44;8.35;;;7.55;;
49840;SDS011;35738;49.890;5.930;2023-05-09T09:28:12;7.60;;;6.80;;
49840;SDS011;35738;49.890;5.930;2023-05-09T09:30:46;7.00;;;6.28;;
49840;SDS011;35738;49.890;5.930;2023-05-09T09:33:22;7.97;;;6.25;;
49840;SDS011;35738;49.890;5.930;2023-05-09T09:35:52;8.30;;;6.15;;
49840;SDS011;35738;49.890;5.930;2023-05-09T09:38:20;6.78;;;6.18;;
49840;SDS011;35738;49.890;5.930;2023-05-09T09:40:57;8.38;;;6.70;;
49840;SDS011;35738;49.890;5.930;2023-05-09T09:43:28;8.40;;;6.82;;
49840;SDS011;35738;49.890;5.930;2023-05-09T09:45:59;7.82;;;6.13;;
49840;SDS011;35738;49.890;5.930;2023-05-09T09:48:32;7.05;;;6.10;;
49840;SDS011;35738;49.890;5.930;2023-05-09T09:51:06;6.63;;;5.93;;
49840;SDS011;35738;49.890;5.930;2023-05-09T09:53:41;6.15;;;5.65;;
49840;SDS011;35738;49.890;5.930;2023-05-09T09:56:09;6.35;;;5.75;;
49840;SDS011;35738;49.890;5.930;2023-05-09T09:58:36;5.55;;;4.97;;
49840;SDS011;35738;49.890;5.930;2023-05-09T10:01:06;6.22;;;5.40;;
49840;SDS011;35738;49.890;5.930;2023-05-09T10:03:38;5.60;;;5.10;;
49840;SDS011;35738;49.890;5.930;2023-05-09T10:06:12;5.82;;;5.28;;
49840;SDS011;35738;49.890;5.930;2023-05-09T10:08:43;5.22;;;4.72;;
49840;SDS011;35738;49.890;5.930;2023-05-09T10:11:12;5.22;;;4.65;;
49840;SDS011;35738;49.890;5.930;2023-05-09T10:13:40;4.22;;;3.83;;
49840;SDS011;35738;49.890;5.930;2023-05-09T10:16:08;4.13;;;3.72;;
49840;SDS011;35738;49.890;5.930;2023-05-09T10:18:36;4.28;;;3.90;;
49840;SDS011;35738;49.890;5.930;2023-05-09T10:21:05;2.85;;;2.65;;
49840;SDS011;35738;49.890;5.930;2023-05-09T10:23:37;3.17;;;2.97;;
49840;SDS011;35738;49.890;5.930;2023-05-09T10:26:16;3.53;;;3.20;;
49840;SDS011;35738;49.890;5.930;2023-05-09T10:28:45;3.20;;;2.90;;
49840;SDS011;35738;49.890;5.930;2023-05-09T10:31:15;2.50;;;2.30;;
49840;SDS011;35738;49.890;5.930;2023-05-09T10:33:48;3.05;;;2.50;;
49840;SDS011;35738;49.890;5.930;2023-05-09T10:36:16;3.17;;;2.88;;
49840;SDS011;35738;49.890;5.930;2023-05-09T10:38:49;3.88;;;2.90;;
49840;SDS011;35738;49.890;5.930;2023-05-09T10:41:19;3.38;;;2.83;;
49840;SDS011;35738;49.890;5.930;2023-05-09T10:43:57;3.47;;;2.40;;
49840;SDS011;35738;49.890;5.930;2023-05-09T10:46:24;3.30;;;2.70;;
49840;SDS011;35738;49.890;5.930;2023-05-09T10:48:52;3.13;;;2.83;;
49840;SDS011;35738;49.890;5.930;2023-05-09T10:51:19;3.25;;;2.95;;
49840;SDS011;35738;49.890;5.930;2023-05-09T10:53:47;2.67;;;2.47;;
49840;SDS011;35738;49.890;5.930;2023-05-09T10:56:24;2.75;;;2.55;;
49840;SDS011;35738;49.890;5.930;2023-05-09T10:58:52;4.65;;;2.72;;
49840;SDS011;35738;49.890;5.930;2023-05-09T11:01:35;3.40;;;2.85;;
49840;SDS011;35738;49.890;5.930;2023-05-09T11:04:08;5.40;;;2.70;;
49840;SDS011;35738;49.890;5.930;2023-05-09T11:06:46;3.05;;;2.75;;
49840;SDS011;35738;49.890;5.930;2023-05-09T11:22:18;4.18;;;2.92;;
49840;SDS011;35738;49.890;5.930;2023-05-09T11:24:47;3.08;;;2.78;;
49840;SDS011;35738;49.890;5.930;2023-05-09T11:29:49;3.30;;;3.00;;
49840;SDS011;35738;49.890;5.930;2023-05-09T11:32:20;3.63;;;3.33;;
49840;SDS011;35738;49.890;5.930;2023-05-09T11:34:48;4.75;;;4.25;;
49840;SDS011;35738;49.890;5.930;2023-05-09T11:37:15;4.57;;;4.10;;
49840;SDS011;35738;49.890;5.930;2023-05-09T11:40:01;4.90;;;4.50;;
49840;SDS011;35738;49.890;5.930;2023-05-09T11:42:30;4.95;;;4.05;;
49840;SDS011;35738;49.890;5.930;2023-05-09T11:44:57;5.10;;;4.68;;
49840;SDS011;35738;49.890;5.930;2023-05-09T11:47:24;4.75;;;4.35;;
49840;SDS011;35738;49.890;5.930;2023-05-09T11:49:51;4.75;;;4.35;;
49840;SDS011;35738;49.890;5.930;2023-05-09T11:52:19;6.82;;;5.43;;
49840;SDS011;35738;49.890;5.930;2023-05-09T11:54:46;6.10;;;5.47;;
49840;SDS011;35738;49.890;5.930;2023-05-09T11:57:14;5.65;;;5.10;;
49840;SDS011;35738;49.890;5.930;2023-05-09T11:59:44;6.90;;;5.43;;
49840;SDS011;35738;49.890;5.930;2023-05-09T12:02:11;6.93;;;5.95;;
49840;SDS011;35738;49.890;5.930;2023-05-09T12:04:38;6.30;;;5.78;;
49840;SDS011;35738;49.890;5.930;2023-05-09T12:07:05;6.90;;;6.15;;
49840;SDS011;35738;49.890;5.930;2023-05-09T12:09:32;9.20;;;7.60;;
49840;SDS011;35738;49.890;5.930;2023-05-09T12:12:10;9.10;;;8.00;;
49840;SDS011;35738;49.890;5.930;2023-05-09T12:14:38;11.05;;;8.70;;
49840;SDS011;35738;49.890;5.930;2023-05-09T12:17:08;10.60;;;9.55;;
49840;SDS011;35738;49.890;5.930;2023-05-09T12:19:35;14.60;;;9.90;;
49840;SDS011;35738;49.890;5.930;2023-05-09T12:22:02;9.77;;;8.75;;
49840;SDS011;35738;49.890;5.930;2023-05-09T12:24:33;11.00;;;9.75;;
49840;SDS011;35738;49.890;5.930;2023-05-09T12:27:02;11.63;;;9.93;;
49840;SDS011;35738;49.890;5.930;2023-05-09T12:29:30;11.02;;;9.55;;
49840;SDS011;35738;49.890;5.930;2023-05-09T12:31:56;10.15;;;8.13;;
49840;SDS011;35738;49.890;5.930;2023-05-09T12:34:23;10.00;;;9.07;;
49840;SDS011;35738;49.890;5.930;2023-05-09T12:36:50;10.30;;;9.05;;
49840;SDS011;35738;49.890;5.930;2023-05-09T12:39:17;10.27;;;8.40;;
49840;SDS011;35738;49.890;5.930;2023-05-09T12:41:47;9.07;;;8.18;;
49840;SDS011;35738;49.890;5.930;2023-05-09T12:44:26;7.55;;;6.82;;
49840;SDS011;35738;49.890;5.930;2023-05-09T12:46:59;6.78;;;5.88;;
49840;SDS011;35738;49.890;5.930;2023-05-09T12:49:28;7.47;;;5.97;;
49840;SDS011;35738;49.890;5.930;2023-05-09T12:51:57;8.02;;;5.47;;
49840;SDS011;35738;49.890;5.930;2023-05-09T12:54:28;4.53;;;4.13;;
49840;SDS011;35738;49.890;5.930;2023-05-09T12:56:56;3.40;;;3.10;;
49840;SDS011;35738;49.890;5.930;2023-05-09T12:59:27;3.08;;;2.63;;
49840;SDS011;35738;49.890;5.930;2023-05-09T13:01:58;2.60;;;2.40;;
49840;SDS011;35738;49.890;5.930;2023-05-09T13:04:26;3.30;;;3.03;;
49840;SDS011;35738;49.890;5.930;2023-05-09T13:06:55;2.53;;;2.35;;
49840;SDS011;35738;49.890;5.930;2023-05-09T13:09:23;2.60;;;2.40;;
49840;SDS011;35738;49.890;5.930;2023-05-09T13:11:50;2.15;;;2.05;;
49840;SDS011;35738;49.890;5.930;2023-05-09T13:14:17;2.20;;;2.10;;
49840;SDS011;35738;49.890;5.930;2023-05-09T13:16:45;2.22;;;2.13;;
49840;SDS011;35738;49.890;5.930;2023-05-09T13:19:12;2.35;;;2.15;;
49840;SDS011;35738;49.890;5.930;2023-05-09T13:21:38;2.10;;;2.00;;
49840;SDS011;35738;49.890;5.930;2023-05-09T13:24:05;2.33;;;2.10;;
49840;SDS011;35738;49.890;5.930;2023-05-09T13:26:32;1.70;;;1.60;;
49840;SDS011;35738;49.890;5.930;2023-05-09T13:28:59;1.98;;;1.88;;
49840;SDS011;35738;49.890;5.930;2023-05-09T13:31:26;3.05;;;1.88;;
49840;SDS011;35738;49.890;5.930;2023-05-09T13:33:52;2.00;;;1.90;;
49840;SDS011;35738;49.890;5.930;2023-05-09T13:36:19;1.80;;;1.70;;
49840;SDS011;35738;49.890;5.930;2023-05-09T13:38:46;1.83;;;1.73;;
49840;SDS011;35738;49.890;5.930;2023-05-09T13:41:15;1.60;;;1.50;;
49840;SDS011;35738;49.890;5.930;2023-05-09T13:43:48;1.90;;;1.80;;
49840;SDS011;35738;49.890;5.930;2023-05-09T13:46:16;1.60;;;1.30;;
49840;SDS011;35738;49.890;5.930;2023-05-09T13:48:43;1.95;;;1.30;;
49840;SDS011;35738;49.890;5.930;2023-05-09T13:51:10;1.83;;;1.73;;
49840;SDS011;35738;49.890;5.930;2023-05-09T13:53:36;1.30;;;1.30;;
49840;SDS011;35738;49.890;5.930;2023-05-09T13:56:05;1.02;;;1.02;;
49840;SDS011;35738;49.890;5.930;2023-05-09T13:58:34;2.40;;;1.55;;
49840;SDS011;35738;49.890;5.930;2023-05-09T14:01:01;0.77;;;0.77;;
49840;SDS011;35738;49.890;5.930;2023-05-09T14:03:28;1.25;;;1.00;;
49840;SDS011;35738;49.890;5.930;2023-05-09T14:05:55;0.52;;;0.52;;
49840;SDS011;35738;49.890;5.930;2023-05-09T14:08:22;0.80;;;0.80;;
49840;SDS011;35738;49.890;5.930;2023-05-09T14:10:49;0.80;;;0.80;;
49840;SDS011;35738;49.890;5.930;2023-05-09T14:13:16;0.70;;;0.70;;
49840;SDS011;35738;49.890;5.930;2023-05-09T14:15:42;0.57;;;0.57;;
49840;SDS011;35738;49.890;5.930;2023-05-09T14:18:09;1.10;;;0.80;;
49840;SDS011;35738;49.890;5.930;2023-05-09T14:20:38;0.90;;;0.90;;
49840;SDS011;35738;49.890;5.930;2023-05-09T14:23:05;0.98;;;0.98;;
49840;SDS011;35738;49.890;5.930;2023-05-09T14:25:32;0.80;;;0.80;;
49840;SDS011;35738;49.890;5.930;2023-05-09T14:27:59;1.35;;;1.10;;
49840;SDS011;35738;49.890;5.930;2023-05-09T14:30:25;1.25;;;0.80;;
49840;SDS011;35738;49.890;5.930;2023-05-09T14:32:52;0.90;;;0.90;;
49840;SDS011;35738;49.890;5.930;2023-05-09T14:35:19;0.88;;;0.88;;
49840;SDS011;35738;49.890;5.930;2023-05-09T14:37:46;0.90;;;0.90;;
49840;SDS011;35738;49.890;5.930;2023-05-09T14:40:12;0.90;;;0.90;;
49840;SDS011;35738;49.890;5.930;2023-05-09T14:42:42;1.00;;;1.00;;
49840;SDS011;35738;49.890;5.930;2023-05-09T14:45:10;1.73;;;1.20;;
49840;SDS011;35738;49.890;5.930;2023-05-09T14:47:40;2.88;;;1.20;;
49840;SDS011;35738;49.890;5.930;2023-05-09T14:50:07;1.20;;;1.10;;
49840;SDS011;35738;49.890;5.930;2023-05-09T14:52:36;1.25;;;1.15;;
49840;SDS011;35738;49.890;5.930;2023-05-09T14:55:03;1.50;;;1.08;;
49840;SDS011;35738;49.890;5.930;2023-05-09T14:57:31;1.70;;;1.60;;
49840;SDS011;35738;49.890;5.930;2023-05-09T14:59:58;3.97;;;2.50;;
49840;SDS011;35738;49.890;5.930;2023-05-09T15:02:45;1.40;;;1.33;;
49840;SDS011;35738;49.890;5.930;2023-05-09T15:05:12;1.48;;;1.15;;
49840;SDS011;35738;49.890;5.930;2023-05-09T15:07:40;2.63;;;1.60;;
49840;SDS011;35738;49.890;5.930;2023-05-09T15:10:06;7.15;;;2.60;;